sensor_id;sensor_type;location;lat;lon;timestamp;P1;durP1;ratioP1;P2;durP2;ratioP2
49310;SDS011;35177;45.900;5.946;2022-09-20T00:01:13;3.65;;;2.00;;
49310;SDS011;35177;45.900;5.946;2022-09-20T00:03:51;3.55;;;1.95;;
49310;SDS011;35177;45.900;5.946;2022-09-20T00:06:20;3.08;;;1.80;;
49310;SDS011;35177;45.900;5.946;2022-09-20T00:08:48;1.88;;;1.73;;
49310;SDS011;35177;45.900;5.946;2022-09-20T00:11:24;2.78;;;2.05;;
49310;SDS011;35177;45.900;5.946;2022-09-20T00:13:52;2.10;;;1.90;;
49310;SDS011;35177;45.900;5.946;2022-09-20T00:16:27;4.88;;;2.00;;
49310;SDS011;35177;45.900;5.946;2022-09-20T00:18:55;4.07;;;1.85;;
49310;SDS011;35177;45.900;5.946;2022-09-20T00:21:24;2.38;;;1.60;;
49310;SDS011;35177;45.900;5.946;2022-09-20T00:23:51;1.75;;;1.65;;
49310;SDS011;35177;45.900;5.946;2022-09-20T00:26:17;1.70;;;1.40;;
49310;SDS011;35177;45.900;5.946;2022-09-20T00:28:43;2.88;;;1.90;;
49310;SDS011;35177;45.900;5.946;2022-09-20T00:31:11;2.95;;;1.83;;
49310;SDS011;35177;45.900;5.946;2022-09-20T00:33:37;3.75;;;1.83;;
49310;SDS011;35177;45.900;5.946;2022-09-20T00:36:21;5.45;;;2.38;;
49310;SDS011;35177;45.900;5.946;2022-09-20T00:38:47;3.53;;;2.35;;
49310;SDS011;35177;45.900;5.946;2022-09-20T00:41:12;3.80;;;1.90;;
49310;SDS011;35177;45.900;5.946;2022-09-20T00:43:40;4.60;;;1.98;;
49310;SDS011;35177;45.900;5.946;2022-09-20T00:46:17;4.05;;;2.00;;
49310;SDS011;35177;45.900;5.946;2022-09-20T00:48:53;4.00;;;1.70;;
49310;SDS011;35177;45.900;5.946;2022-09-20T00:51:27;3.95;;;1.70;;
49310;SDS011;35177;45.900;5.946;2022-09-20T00:53:56;2.33;;;1.85;;
49310;SDS011;35177;45.900;5.946;2022-09-20T00:56:30;2.72;;;1.67;;
49310;SDS011;35177;45.900;5.946;2022-09-20T01:01:43;4.78;;;1.83;;
49310;SDS011;35177;45.900;5.946;2022-09-20T01:04:13;4.63;;;1.50;;
49310;SDS011;35177;45.900;5.946;2022-09-20T01:06:40;1.77;;;1.10;;
49310;SDS011;35177;45.900;5.946;2022-09-20T01:09:09;1.70;;;1.30;;
49310;SDS011;35177;45.900;5.946;2022-09-20T01:11:35;1.98;;;1.30;;
49310;SDS011;35177;45.900;5.946;2022-09-20T01:14:01;4.00;;;1.60;;
49310;SDS011;35177;45.900;5.946;2022-09-20T01:16:27;2.28;;;1.60;;
49310;SDS011;35177;45.900;5.946;2022-09-20T01:18:58;2.22;;;1.30;;
49310;SDS011;35177;45.900;5.946;2022-09-20T01:21:26;1.52;;;1.10;;
49310;SDS011;35177;45.900;5.946;2022-09-20T01:24:06;2.17;;;1.45;;
49310;SDS011;35177;45.900;5.946;2022-09-20T01:32:14;3.72;;;1.52;;
49310;SDS011;35177;45.900;5.946;2022-09-20T01:34:46;2.00;;;1.20;;
49310;SDS011;35177;45.900;5.946;2022-09-20T01:42:36;3.08;;;1.30;;
49310;SDS011;35177;45.900;5.946;2022-09-20T02:12:57;3.70;;;1.20;;
49310;SDS011;35177;45.900;5.946;2022-09-20T02:38:20;1.85;;;1.17;;
49310;SDS011;35177;45.900;5.946;2022-09-20T02:44:32;1.67;;;1.05;;
49310;SDS011;35177;45.900;5.946;2022-09-20T02:55:13;0.88;;;0.70;;
49310;SDS011;35177;45.900;5.946;2022-09-20T03:00:22;1.13;;;0.95;;
49310;SDS011;35177;45.900;5.946;2022-09-20T03:02:59;1.10;;;1.00;;
49310;SDS011;35177;45.900;5.946;2022-09-20T03:09:03;4.13;;;1.00;;
49310;SDS011;35177;45.900;5.946;2022-09-20T03:14:17;2.13;;;1.17;;
49310;SDS011;35177;45.900;5.946;2022-09-20T03:16:55;3.03;;;0.85;;
49310;SDS011;35177;45.900;5.946;2022-09-20T03:25:22;1.85;;;0.93;;
49310;SDS011;35177;45.900;5.946;2022-09-20T03:30:59;3.15;;;1.48;;
49310;SDS011;35177;45.900;5.946;2022-09-20T03:47:48;4.43;;;1.00;;
49310;SDS011;35177;45.900;5.946;2022-09-20T03:52:53;1.35;;;0.80;;
49310;SDS011;35177;45.900;5.946;2022-09-20T04:14:19;4.32;;;0.98;;
49310;SDS011;35177;45.900;5.946;2022-09-20T04:16:52;3.47;;;1.00;;
49310;SDS011;35177;45.900;5.946;2022-09-20T04:19:27;2.58;;;0.88;;
49310;SDS011;35177;45.900;5.946;2022-09-20T04:21:59;3.63;;;1.50;;
49310;SDS011;35177;45.900;5.946;2022-09-20T04:27:16;2.92;;;1.05;;
49310;SDS011;35177;45.900;5.946;2022-09-20T04:29:46;0.93;;;0.70;;
49310;SDS011;35177;45.900;5.946;2022-09-20T04:32:39;1.83;;;0.95;;
49310;SDS011;35177;45.900;5.946;2022-09-20T04:35:29;2.25;;;0.80;;
49310;SDS011;35177;45.900;5.946;2022-09-20T04:38:25;4.70;;;1.00;;
49310;SDS011;35177;45.900;5.946;2022-09-20T04:41:43;1.63;;;1.00;;
49310;SDS011;35177;45.900;5.946;2022-09-20T05:09:00;3.77;;;1.30;;
49310;SDS011;35177;45.900;5.946;2022-09-20T05:14:30;3.97;;;1.20;;
49310;SDS011;35177;45.900;5.946;2022-09-20T05:28:57;2.35;;;0.90;;
49310;SDS011;35177;45.900;5.946;2022-09-20T05:34:03;3.67;;;1.10;;
49310;SDS011;35177;45.900;5.946;2022-09-20T05:37:03;2.90;;;1.70;;
49310;SDS011;35177;45.900;5.946;2022-09-20T05:42:51;3.80;;;1.30;;
49310;SDS011;35177;45.900;5.946;2022-09-20T05:48:14;2.97;;;1.10;;
49310;SDS011;35177;45.900;5.946;2022-09-20T05:51:00;3.83;;;1.40;;
49310;SDS011;35177;45.900;5.946;2022-09-20T05:56:15;2.75;;;1.23;;
49310;SDS011;35177;45.900;5.946;2022-09-20T06:01:29;7.25;;;1.63;;
49310;SDS011;35177;45.900;5.946;2022-09-20T06:04:08;4.00;;;1.83;;
49310;SDS011;35177;45.900;5.946;2022-09-20T06:14:54;3.55;;;1.50;;
49310;SDS011;35177;45.900;5.946;2022-09-20T06:17:47;4.35;;;2.20;;
49310;SDS011;35177;45.900;5.946;2022-09-20T06:20:24;5.32;;;2.00;;
49310;SDS011;35177;45.900;5.946;2022-09-20T06:22:58;4.05;;;1.77;;
49310;SDS011;35177;45.900;5.946;2022-09-20T06:28:15;3.00;;;1.70;;
49310;SDS011;35177;45.900;5.946;2022-09-20T06:30:47;2.28;;;1.70;;
49310;SDS011;35177;45.900;5.946;2022-09-20T06:33:15;1.58;;;1.40;;
49310;SDS011;35177;45.900;5.946;2022-09-20T06:36:01;7.25;;;1.50;;
49310;SDS011;35177;45.900;5.946;2022-09-20T06:38:54;3.33;;;1.50;;
49310;SDS011;35177;45.900;5.946;2022-09-20T06:41:45;2.15;;;1.20;;
49310;SDS011;35177;45.900;5.946;2022-09-20T06:44:11;2.63;;;1.30;;
49310;SDS011;35177;45.900;5.946;2022-09-20T06:46:36;1.80;;;1.25;;
49310;SDS011;35177;45.900;5.946;2022-09-20T06:49:02;2.10;;;1.13;;
49310;SDS011;35177;45.900;5.946;2022-09-20T06:51:32;3.03;;;1.30;;
49310;SDS011;35177;45.900;5.946;2022-09-20T06:53:59;2.80;;;1.27;;
49310;SDS011;35177;45.900;5.946;2022-09-20T06:56:28;9.82;;;2.75;;
49310;SDS011;35177;45.900;5.946;2022-09-20T06:58:56;4.13;;;1.50;;
49310;SDS011;35177;45.900;5.946;2022-09-20T07:01:21;4.43;;;1.50;;
49310;SDS011;35177;45.900;5.946;2022-09-20T07:03:47;3.22;;;1.83;;
49310;SDS011;35177;45.900;5.946;2022-09-20T07:06:13;3.88;;;1.77;;
49310;SDS011;35177;45.900;5.946;2022-09-20T07:08:44;2.88;;;1.55;;
49310;SDS011;35177;45.900;5.946;2022-09-20T07:11:11;5.05;;;1.58;;
49310;SDS011;35177;45.900;5.946;2022-09-20T07:13:40;3.30;;;2.05;;
49310;SDS011;35177;45.900;5.946;2022-09-20T07:16:06;5.35;;;2.17;;
49310;SDS011;35177;45.900;5.946;2022-09-20T07:18:34;4.47;;;2.13;;
49310;SDS011;35177;45.900;5.946;2022-09-20T07:21:00;5.97;;;2.13;;
49310;SDS011;35177;45.900;5.946;2022-09-20T07:23:26;5.55;;;2.42;;
49310;SDS011;35177;45.900;5.946;2022-09-20T07:25:54;6.38;;;2.25;;
49310;SDS011;35177;45.900;5.946;2022-09-20T07:28:22;5.95;;;3.05;;
49310;SDS011;35177;45.900;5.946;2022-09-20T07:30:48;3.40;;;2.30;;
49310;SDS011;35177;45.900;5.946;2022-09-20T07:33:14;8.02;;;2.60;;
49310;SDS011;35177;45.900;5.946;2022-09-20T07:35:52;6.15;;;2.42;;
49310;SDS011;35177;45.900;5.946;2022-09-20T07:38:20;3.10;;;2.17;;
49310;SDS011;35177;45.900;5.946;2022-09-20T07:40:53;9.32;;;2.67;;
49310;SDS011;35177;45.900;5.946;2022-09-20T07:43:20;4.38;;;2.40;;
49310;SDS011;35177;45.900;5.946;2022-09-20T07:45:48;5.80;;;2.83;;
49310;SDS011;35177;45.900;5.946;2022-09-20T07:48:23;5.47;;;2.47;;
49310;SDS011;35177;45.900;5.946;2022-09-20T07:50:51;6.40;;;2.13;;
49310;SDS011;35177;45.900;5.946;2022-09-20T07:53:18;5.85;;;2.45;;
49310;SDS011;35177;45.900;5.946;2022-09-20T07:55:54;4.53;;;2.25;;
49310;SDS011;35177;45.900;5.946;2022-09-20T07:58:28;3.45;;;2.05;;
49310;SDS011;35177;45.900;5.946;2022-09-20T08:00:55;4.10;;;2.13;;
49310;SDS011;35177;45.900;5.946;2022-09-20T08:03:23;6.13;;;2.15;;
49310;SDS011;35177;45.900;5.946;2022-09-20T08:05:50;6.95;;;1.98;;
49310;SDS011;35177;45.900;5.946;2022-09-20T08:08:16;6.20;;;1.98;;
49310;SDS011;35177;45.900;5.946;2022-09-20T08:10:45;6.20;;;1.90;;
49310;SDS011;35177;45.900;5.946;2022-09-20T08:13:12;3.70;;;1.67;;
49310;SDS011;35177;45.900;5.946;2022-09-20T08:15:38;4.60;;;1.52;;
49310;SDS011;35177;45.900;5.946;2022-09-20T08:18:05;4.30;;;1.45;;
49310;SDS011;35177;45.900;5.946;2022-09-20T08:20:38;5.22;;;1.58;;
49310;SDS011;35177;45.900;5.946;2022-09-20T08:23:04;4.50;;;1.50;;
49310;SDS011;35177;45.900;5.946;2022-09-20T08:25:30;5.72;;;1.30;;
49310;SDS011;35177;45.900;5.946;2022-09-20T08:27:56;4.97;;;1.45;;
49310;SDS011;35177;45.900;5.946;2022-09-20T08:30:22;3.67;;;1.35;;
49310;SDS011;35177;45.900;5.946;2022-09-20T08:32:48;5.68;;;1.10;;
49310;SDS011;35177;45.900;5.946;2022-09-20T08:35:14;3.17;;;0.90;;
49310;SDS011;35177;45.900;5.946;2022-09-20T08:37:40;6.35;;;1.30;;
49310;SDS011;35177;45.900;5.946;2022-09-20T08:40:08;3.67;;;0.93;;
49310;SDS011;35177;45.900;5.946;2022-09-20T08:42:37;5.65;;;0.98;;
49310;SDS011;35177;45.900;5.946;2022-09-20T08:45:05;3.55;;;1.23;;
49310;SDS011;35177;45.900;5.946;2022-09-20T08:48:09;5.30;;;1.17;;
49310;SDS011;35177;45.900;5.946;2022-09-20T08:50:35;4.43;;;1.05;;
49310;SDS011;35177;45.900;5.946;2022-09-20T08:53:01;3.97;;;1.10;;
49310;SDS011;35177;45.900;5.946;2022-09-20T08:55:31;4.07;;;1.00;;
49310;SDS011;35177;45.900;5.946;2022-09-20T08:57:58;5.10;;;1.17;;
49310;SDS011;35177;45.900;5.946;2022-09-20T09:00:28;5.78;;;1.38;;
49310;SDS011;35177;45.900;5.946;2022-09-20T09:03:00;5.00;;;1.77;;
49310;SDS011;35177;45.900;5.946;2022-09-20T09:05:35;2.95;;;1.17;;
49310;SDS011;35177;45.900;5.946;2022-09-20T09:08:02;6.47;;;1.08;;
49310;SDS011;35177;45.900;5.946;2022-09-20T09:10:33;4.55;;;1.08;;
49310;SDS011;35177;45.900;5.946;2022-09-20T09:13:02;4.15;;;1.10;;
49310;SDS011;35177;45.900;5.946;2022-09-20T09:15:30;6.32;;;1.30;;
49310;SDS011;35177;45.900;5.946;2022-09-20T09:17:59;7.20;;;1.33;;
49310;SDS011;35177;45.900;5.946;2022-09-20T09:20:25;7.32;;;1.35;;
49310;SDS011;35177;45.900;5.946;2022-09-20T09:23:01;6.22;;;1.08;;
49310;SDS011;35177;45.900;5.946;2022-09-20T09:25:36;4.30;;;1.10;;
49310;SDS011;35177;45.900;5.946;2022-09-20T09:30:35;2.42;;;1.13;;
49310;SDS011;35177;45.900;5.946;2022-09-20T09:35:53;2.05;;;1.00;;
49310;SDS011;35177;45.900;5.946;2022-09-20T09:38:29;3.60;;;1.17;;
49310;SDS011;35177;45.900;5.946;2022-09-20T09:40:57;5.05;;;1.35;;
49310;SDS011;35177;45.900;5.946;2022-09-20T09:43:29;4.30;;;1.40;;
49310;SDS011;35177;45.900;5.946;2022-09-20T09:46:19;2.20;;;1.17;;
49310;SDS011;35177;45.900;5.946;2022-09-20T09:51:40;4.13;;;1.48;;
49310;SDS011;35177;45.900;5.946;2022-09-20T09:54:15;5.45;;;1.65;;
49310;SDS011;35177;45.900;5.946;2022-09-20T10:04:42;3.47;;;1.15;;
49310;SDS011;35177;45.900;5.946;2022-09-20T10:07:19;5.50;;;1.30;;
49310;SDS011;35177;45.900;5.946;2022-09-20T10:21:31;7.23;;;1.63;;
49310;SDS011;35177;45.900;5.946;2022-09-20T10:24:31;10.30;;;1.85;;
49310;SDS011;35177;45.900;5.946;2022-09-20T10:27:25;4.47;;;1.55;;
49310;SDS011;35177;45.900;5.946;2022-09-20T10:30:11;6.70;;;1.30;;
49310;SDS011;35177;45.900;5.946;2022-09-20T10:32:57;6.70;;;1.70;;
49310;SDS011;35177;45.900;5.946;2022-09-20T10:38:36;3.88;;;1.42;;
49310;SDS011;35177;45.900;5.946;2022-09-20T10:41:25;4.90;;;1.50;;
49310;SDS011;35177;45.900;5.946;2022-09-20T10:44:35;5.80;;;1.80;;
49310;SDS011;35177;45.900;5.946;2022-09-20T10:47:14;4.88;;;1.70;;
49310;SDS011;35177;45.900;5.946;2022-09-20T10:49:48;4.63;;;1.42;;
49310;SDS011;35177;45.900;5.946;2022-09-20T10:55:32;5.38;;;2.35;;
49310;SDS011;35177;45.900;5.946;2022-09-20T11:09:09;2.85;;;1.60;;
49310;SDS011;35177;45.900;5.946;2022-09-20T11:11:46;3.78;;;1.88;;
49310;SDS011;35177;45.900;5.946;2022-09-20T11:14:16;3.83;;;1.85;;
49310;SDS011;35177;45.900;5.946;2022-09-20T11:22:15;5.10;;;1.65;;
49310;SDS011;35177;45.900;5.946;2022-09-20T11:24:50;3.80;;;1.30;;
49310;SDS011;35177;45.900;5.946;2022-09-20T11:29:51;4.00;;;1.55;;
49310;SDS011;35177;45.900;5.946;2022-09-20T11:32:29;5.78;;;1.80;;
49310;SDS011;35177;45.900;5.946;2022-09-20T11:37:35;5.63;;;1.70;;
49310;SDS011;35177;45.900;5.946;2022-09-20T11:42:52;4.95;;;1.85;;
49310;SDS011;35177;45.900;5.946;2022-09-20T11:45:21;5.95;;;2.28;;
49310;SDS011;35177;45.900;5.946;2022-09-20T11:47:52;7.13;;;2.35;;
49310;SDS011;35177;45.900;5.946;2022-09-20T11:53:37;2.72;;;1.63;;
49310;SDS011;35177;45.900;5.946;2022-09-20T11:58:59;8.10;;;2.28;;
49310;SDS011;35177;45.900;5.946;2022-09-20T12:03:57;4.75;;;2.28;;
49310;SDS011;35177;45.900;5.946;2022-09-20T12:06:34;5.45;;;2.65;;
49310;SDS011;35177;45.900;5.946;2022-09-20T12:09:03;4.88;;;2.70;;
49310;SDS011;35177;45.900;5.946;2022-09-20T12:11:46;5.60;;;2.63;;
49310;SDS011;35177;45.900;5.946;2022-09-20T12:14:21;6.90;;;2.67;;
49310;SDS011;35177;45.900;5.946;2022-09-20T12:16:49;7.30;;;2.53;;
49310;SDS011;35177;45.900;5.946;2022-09-20T12:24:25;7.72;;;2.83;;
49310;SDS011;35177;45.900;5.946;2022-09-20T12:26:54;8.07;;;3.15;;
49310;SDS011;35177;45.900;5.946;2022-09-20T12:31:53;5.28;;;2.55;;
49310;SDS011;35177;45.900;5.946;2022-09-20T12:39:19;3.90;;;2.08;;
49310;SDS011;35177;45.900;5.946;2022-09-20T12:41:49;3.13;;;2.00;;
49310;SDS011;35177;45.900;5.946;2022-09-20T13:08:11;4.28;;;1.55;;
49310;SDS011;35177;45.900;5.946;2022-09-20T13:10:46;6.05;;;1.58;;
49310;SDS011;35177;45.900;5.946;2022-09-20T13:13:18;32.38;;;2.78;;
49310;SDS011;35177;45.900;5.946;2022-09-20T13:15:47;12.52;;;1.80;;
49310;SDS011;35177;45.900;5.946;2022-09-20T13:18:17;2.63;;;1.30;;
49310;SDS011;35177;45.900;5.946;2022-09-20T13:20:44;4.35;;;1.55;;
49310;SDS011;35177;45.900;5.946;2022-09-20T13:23:16;5.65;;;1.30;;
49310;SDS011;35177;45.900;5.946;2022-09-20T13:25:45;4.93;;;1.40;;
49310;SDS011;35177;45.900;5.946;2022-09-20T13:33:45;4.40;;;1.10;;
49310;SDS011;35177;45.900;5.946;2022-09-20T13:36:11;3.40;;;0.90;;
49310;SDS011;35177;45.900;5.946;2022-09-20T13:38:38;4.20;;;1.15;;
49310;SDS011;35177;45.900;5.946;2022-09-20T13:41:05;2.65;;;1.05;;
49310;SDS011;35177;45.900;5.946;2022-09-20T13:43:39;4.97;;;1.25;;
49310;SDS011;35177;45.900;5.946;2022-09-20T13:46:09;3.78;;;1.10;;
49310;SDS011;35177;45.900;5.946;2022-09-20T13:48:35;5.25;;;1.30;;
49310;SDS011;35177;45.900;5.946;2022-09-20T13:51:02;3.08;;;1.20;;
49310;SDS011;35177;45.900;5.946;2022-09-20T13:53:28;5.10;;;1.40;;
49310;SDS011;35177;45.900;5.946;2022-09-20T13:55:57;6.47;;;1.40;;
49310;SDS011;35177;45.900;5.946;2022-09-20T13:58:32;4.28;;;1.10;;
49310;SDS011;35177;45.900;5.946;2022-09-20T14:01:02;4.20;;;1.30;;
49310;SDS011;35177;45.900;5.946;2022-09-20T14:03:30;4.55;;;1.10;;
49310;SDS011;35177;45.900;5.946;2022-09-20T14:06:06;2.38;;;1.00;;
49310;SDS011;35177;45.900;5.946;2022-09-20T14:08:39;4.38;;;1.30;;
49310;SDS011;35177;45.900;5.946;2022-09-20T14:11:13;6.88;;;1.30;;
49310;SDS011;35177;45.900;5.946;2022-09-20T14:13:48;4.75;;;1.42;;
49310;SDS011;35177;45.900;5.946;2022-09-20T14:16:16;4.90;;;1.20;;
49310;SDS011;35177;45.900;5.946;2022-09-20T14:18:44;3.42;;;1.27;;
49310;SDS011;35177;45.900;5.946;2022-09-20T14:21:12;1.63;;;1.00;;
49310;SDS011;35177;45.900;5.946;2022-09-20T14:23:51;2.10;;;0.95;;
49310;SDS011;35177;45.900;5.946;2022-09-20T14:28:44;4.53;;;1.40;;
49310;SDS011;35177;45.900;5.946;2022-09-20T14:31:23;3.10;;;1.00;;
49310;SDS011;35177;45.900;5.946;2022-09-20T14:33:52;2.95;;;0.90;;
49310;SDS011;35177;45.900;5.946;2022-09-20T14:36:21;2.88;;;1.00;;
49310;SDS011;35177;45.900;5.946;2022-09-20T14:38:52;2.83;;;1.00;;
49310;SDS011;35177;45.900;5.946;2022-09-20T14:41:30;3.53;;;1.20;;
49310;SDS011;35177;45.900;5.946;2022-09-20T14:43:58;5.38;;;1.10;;
49310;SDS011;35177;45.900;5.946;2022-09-20T14:46:33;4.88;;;1.02;;
49310;SDS011;35177;45.900;5.946;2022-09-20T14:49:19;4.88;;;1.02;;
49310;SDS011;35177;45.900;5.946;2022-09-20T14:52:55;2.53;;;1.02;;
49310;SDS011;35177;45.900;5.946;2022-09-20T14:54:59;2.47;;;0.93;;
49310;SDS011;35177;45.900;5.946;2022-09-20T14:57:40;9.63;;;2.33;;
49310;SDS011;35177;45.900;5.946;2022-09-20T15:00:09;11.38;;;1.58;;
49310;SDS011;35177;45.900;5.946;2022-09-20T15:02:37;1.80;;;0.98;;
49310;SDS011;35177;45.900;5.946;2022-09-20T15:05:14;10.73;;;2.45;;
49310;SDS011;35177;45.900;5.946;2022-09-20T15:07:45;5.40;;;1.13;;
49310;SDS011;35177;45.900;5.946;2022-09-20T15:10:11;10.43;;;2.30;;
49310;SDS011;35177;45.900;5.946;2022-09-20T15:12:38;6.70;;;1.27;;
49310;SDS011;35177;45.900;5.946;2022-09-20T15:15:03;22.25;;;5.80;;
49310;SDS011;35177;45.900;5.946;2022-09-20T15:17:29;7.65;;;1.00;;
49310;SDS011;35177;45.900;5.946;2022-09-20T15:19:55;4.88;;;1.20;;
49310;SDS011;35177;45.900;5.946;2022-09-20T15:22:21;2.88;;;0.90;;
49310;SDS011;35177;45.900;5.946;2022-09-20T15:24:47;2.30;;;0.73;;
49310;SDS011;35177;45.900;5.946;2022-09-20T15:27:12;6.88;;;0.82;;
49310;SDS011;35177;45.900;5.946;2022-09-20T15:29:39;8.48;;;1.00;;
49310;SDS011;35177;45.900;5.946;2022-09-20T15:32:05;4.93;;;0.90;;
49310;SDS011;35177;45.900;5.946;2022-09-20T15:34:31;2.97;;;0.70;;
49310;SDS011;35177;45.900;5.946;2022-09-20T15:36:56;4.03;;;0.95;;
49310;SDS011;35177;45.900;5.946;2022-09-20T15:39:22;1.98;;;0.73;;
49310;SDS011;35177;45.900;5.946;2022-09-20T15:41:50;5.80;;;0.82;;
49310;SDS011;35177;45.900;5.946;2022-09-20T15:44:16;3.45;;;0.88;;
49310;SDS011;35177;45.900;5.946;2022-09-20T15:46:42;3.13;;;1.10;;
49310;SDS011;35177;45.900;5.946;2022-09-20T15:49:08;5.55;;;0.80;;
49310;SDS011;35177;45.900;5.946;2022-09-20T15:51:36;2.47;;;0.77;;
49310;SDS011;35177;45.900;5.946;2022-09-20T15:54:03;2.75;;;0.80;;
49310;SDS011;35177;45.900;5.946;2022-09-20T15:56:33;4.38;;;1.00;;
49310;SDS011;35177;45.900;5.946;2022-09-20T15:59:01;4.32;;;1.15;;
49310;SDS011;35177;45.900;5.946;2022-09-20T16:01:35;2.85;;;0.93;;
49310;SDS011;35177;45.900;5.946;2022-09-20T16:04:06;8.25;;;1.05;;
49310;SDS011;35177;45.900;5.946;2022-09-20T16:06:35;6.80;;;1.00;;
49310;SDS011;35177;45.900;5.946;2022-09-20T16:09:01;5.07;;;0.88;;
49310;SDS011;35177;45.900;5.946;2022-09-20T16:11:27;2.45;;;0.80;;
49310;SDS011;35177;45.900;5.946;2022-09-20T16:13:53;4.40;;;1.05;;
49310;SDS011;35177;45.900;5.946;2022-09-20T16:16:20;5.38;;;1.00;;
49310;SDS011;35177;45.900;5.946;2022-09-20T16:18:46;2.70;;;0.88;;
49310;SDS011;35177;45.900;5.946;2022-09-20T16:21:30;2.72;;;0.95;;
49310;SDS011;35177;45.900;5.946;2022-09-20T16:23:56;6.13;;;1.10;;
49310;SDS011;35177;45.900;5.946;2022-09-20T16:26:23;6.32;;;0.88;;
49310;SDS011;35177;45.900;5.946;2022-09-20T16:28:51;3.88;;;0.95;;
49310;SDS011;35177;45.900;5.946;2022-09-20T16:34:10;2.53;;;0.90;;
49310;SDS011;35177;45.900;5.946;2022-09-20T16:36:47;5.85;;;0.90;;
49310;SDS011;35177;45.900;5.946;2022-09-20T16:39:15;5.18;;;0.85;;
49310;SDS011;35177;45.900;5.946;2022-09-20T16:41:42;4.75;;;1.00;;
49310;SDS011;35177;45.900;5.946;2022-09-20T16:44:09;3.28;;;0.88;;
49310;SDS011;35177;45.900;5.946;2022-09-20T16:46:35;4.00;;;1.00;;
49310;SDS011;35177;45.900;5.946;2022-09-20T16:49:10;4.18;;;0.90;;
49310;SDS011;35177;45.900;5.946;2022-09-20T16:51:38;2.28;;;0.70;;
49310;SDS011;35177;45.900;5.946;2022-09-20T16:54:06;5.78;;;1.10;;
49310;SDS011;35177;45.900;5.946;2022-09-20T16:56:35;4.78;;;1.00;;
49310;SDS011;35177;45.900;5.946;2022-09-20T16:59:01;3.20;;;0.90;;
49310;SDS011;35177;45.900;5.946;2022-09-20T17:01:29;5.90;;;1.00;;
49310;SDS011;35177;45.900;5.946;2022-09-20T17:03:56;2.70;;;1.02;;
49310;SDS011;35177;45.900;5.946;2022-09-20T17:06:22;6.25;;;0.93;;
49310;SDS011;35177;45.900;5.946;2022-09-20T17:08:50;3.97;;;1.25;;
49310;SDS011;35177;45.900;5.946;2022-09-20T17:11:18;3.40;;;0.98;;
49310;SDS011;35177;45.900;5.946;2022-09-20T17:13:48;3.88;;;1.33;;
49310;SDS011;35177;45.900;5.946;2022-09-20T17:16:16;4.22;;;1.00;;
49310;SDS011;35177;45.900;5.946;2022-09-20T17:18:44;4.43;;;1.27;;
49310;SDS011;35177;45.900;5.946;2022-09-20T17:21:13;4.47;;;1.05;;
49310;SDS011;35177;45.900;5.946;2022-09-20T17:23:46;3.45;;;0.80;;
49310;SDS011;35177;45.900;5.946;2022-09-20T17:26:19;1.63;;;1.08;;
49310;SDS011;35177;45.900;5.946;2022-09-20T17:28:48;10.18;;;1.50;;
49310;SDS011;35177;45.900;5.946;2022-09-20T17:31:20;2.88;;;0.93;;
49310;SDS011;35177;45.900;5.946;2022-09-20T17:33:52;6.35;;;1.20;;
49310;SDS011;35177;45.900;5.946;2022-09-20T17:36:19;10.27;;;1.48;;
49310;SDS011;35177;45.900;5.946;2022-09-20T17:38:45;6.00;;;1.60;;
49310;SDS011;35177;45.900;5.946;2022-09-20T17:41:15;5.63;;;1.10;;
49310;SDS011;35177;45.900;5.946;2022-09-20T17:43:42;8.65;;;1.40;;
49310;SDS011;35177;45.900;5.946;2022-09-20T17:46:11;2.50;;;1.50;;
49310;SDS011;35177;45.900;5.946;2022-09-20T17:48:54;7.55;;;1.10;;
49310;SDS011;35177;45.900;5.946;2022-09-20T17:51:21;5.15;;;1.33;;
49310;SDS011;35177;45.900;5.946;2022-09-20T17:53:49;4.22;;;1.13;;
49310;SDS011;35177;45.900;5.946;2022-09-20T17:56:15;10.25;;;1.55;;
49310;SDS011;35177;45.900;5.946;2022-09-20T17:58:41;3.05;;;1.27;;
49310;SDS011;35177;45.900;5.946;2022-09-20T18:01:07;6.18;;;1.27;;
49310;SDS011;35177;45.900;5.946;2022-09-20T18:03:36;12.10;;;1.52;;
49310;SDS011;35177;45.900;5.946;2022-09-20T18:06:11;3.60;;;1.13;;
49310;SDS011;35177;45.900;5.946;2022-09-20T18:08:48;4.47;;;1.15;;
49310;SDS011;35177;45.900;5.946;2022-09-20T18:11:28;5.13;;;1.10;;
49310;SDS011;35177;45.900;5.946;2022-09-20T18:13:59;4.00;;;1.05;;
49310;SDS011;35177;45.900;5.946;2022-09-20T18:16:25;3.13;;;1.15;;
49310;SDS011;35177;45.900;5.946;2022-09-20T18:18:51;4.10;;;1.15;;
49310;SDS011;35177;45.900;5.946;2022-09-20T18:21:17;7.10;;;1.00;;
49310;SDS011;35177;45.900;5.946;2022-09-20T18:23:53;7.57;;;1.40;;
49310;SDS011;35177;45.900;5.946;2022-09-20T18:26:23;7.30;;;1.35;;
49310;SDS011;35177;45.900;5.946;2022-09-20T18:31:28;8.38;;;1.27;;
49310;SDS011;35177;45.900;5.946;2022-09-20T18:34:00;3.75;;;0.90;;
49310;SDS011;35177;45.900;5.946;2022-09-20T18:36:27;3.67;;;1.00;;
49310;SDS011;35177;45.900;5.946;2022-09-20T18:38:54;5.38;;;1.33;;
49310;SDS011;35177;45.900;5.946;2022-09-20T18:41:22;2.65;;;0.88;;
49310;SDS011;35177;45.900;5.946;2022-09-20T18:43:53;4.30;;;1.10;;
49310;SDS011;35177;45.900;5.946;2022-09-20T18:46:20;3.55;;;1.10;;
49310;SDS011;35177;45.900;5.946;2022-09-20T18:48:50;1.92;;;0.93;;
49310;SDS011;35177;45.900;5.946;2022-09-20T18:51:16;6.43;;;1.10;;
49310;SDS011;35177;45.900;5.946;2022-09-20T18:53:42;2.50;;;1.08;;
49310;SDS011;35177;45.900;5.946;2022-09-20T18:56:08;2.85;;;1.00;;
49310;SDS011;35177;45.900;5.946;2022-09-20T18:58:48;2.17;;;1.15;;
49310;SDS011;35177;45.900;5.946;2022-09-20T19:04:23;2.58;;;0.90;;
49310;SDS011;35177;45.900;5.946;2022-09-20T19:07:15;9.73;;;1.35;;
49310;SDS011;35177;45.900;5.946;2022-09-20T19:26:20;3.30;;;1.15;;
49310;SDS011;35177;45.900;5.946;2022-09-20T19:28:54;5.35;;;1.20;;
49310;SDS011;35177;45.900;5.946;2022-09-20T19:31:22;3.67;;;1.00;;
49310;SDS011;35177;45.900;5.946;2022-09-20T19:33:48;3.40;;;1.40;;
49310;SDS011;35177;45.900;5.946;2022-09-20T19:36:15;4.93;;;1.17;;
49310;SDS011;35177;45.900;5.946;2022-09-20T19:38:43;5.32;;;1.13;;
49310;SDS011;35177;45.900;5.946;2022-09-20T19:41:49;2.63;;;1.20;;
49310;SDS011;35177;45.900;5.946;2022-09-20T19:44:27;3.50;;;0.80;;
49310;SDS011;35177;45.900;5.946;2022-09-20T19:47:13;5.05;;;1.17;;
49310;SDS011;35177;45.900;5.946;2022-09-20T19:50:02;4.57;;;1.00;;
49310;SDS011;35177;45.900;5.946;2022-09-20T19:52:42;5.10;;;1.15;;
49310;SDS011;35177;45.900;5.946;2022-09-20T19:55:11;8.45;;;1.70;;
49310;SDS011;35177;45.900;5.946;2022-09-20T19:57:40;4.10;;;1.40;;
49310;SDS011;35177;45.900;5.946;2022-09-20T20:00:10;4.65;;;1.40;;
49310;SDS011;35177;45.900;5.946;2022-09-20T20:02:38;7.25;;;1.23;;
49310;SDS011;35177;45.900;5.946;2022-09-20T20:05:04;6.18;;;1.27;;
49310;SDS011;35177;45.900;5.946;2022-09-20T20:07:42;4.10;;;1.65;;
49310;SDS011;35177;45.900;5.946;2022-09-20T20:10:16;6.85;;;1.20;;
49310;SDS011;35177;45.900;5.946;2022-09-20T20:13:07;4.63;;;1.25;;
49310;SDS011;35177;45.900;5.946;2022-09-20T20:24:37;3.35;;;1.13;;
49310;SDS011;35177;45.900;5.946;2022-09-20T20:27:10;3.53;;;1.20;;
49310;SDS011;35177;45.900;5.946;2022-09-20T20:29:36;4.50;;;1.25;;
49310;SDS011;35177;45.900;5.946;2022-09-20T20:32:01;4.22;;;1.08;;
49310;SDS011;35177;45.900;5.946;2022-09-20T20:34:27;3.72;;;1.08;;
49310;SDS011;35177;45.900;5.946;2022-09-20T20:36:54;2.72;;;1.10;;
49310;SDS011;35177;45.900;5.946;2022-09-20T20:39:25;3.95;;;1.35;;
49310;SDS011;35177;45.900;5.946;2022-09-20T20:41:52;5.65;;;1.10;;
49310;SDS011;35177;45.900;5.946;2022-09-20T20:44:18;3.85;;;1.00;;
49310;SDS011;35177;45.900;5.946;2022-09-20T20:46:46;3.53;;;1.13;;
49310;SDS011;35177;45.900;5.946;2022-09-20T20:49:12;3.05;;;1.05;;
49310;SDS011;35177;45.900;5.946;2022-09-20T20:51:37;5.15;;;1.40;;
49310;SDS011;35177;45.900;5.946;2022-09-20T20:54:03;9.15;;;1.75;;
49310;SDS011;35177;45.900;5.946;2022-09-20T20:56:29;5.30;;;1.25;;